TTW235 RJCC-RCTP
Flight info
| Callsign | TTW235 |
|---|---|
| Flight time | N/A |
| Altitude | 34000 |
| Route | DALBI Y120 TAPPI Y12 ARIKA Y14 MIHOU Y45 HKC Y50 IGMON A1 DRAKE DRAKE1A |
| Aircraft | A21N/M-SDE1E2E3FGHIJ1J3J4J7M3P2RWY/LB1D1 |
Departure
| Time | 2026-05-08 05:17 |
|---|---|
| Airport | New Chitose Airport (RJCC) |
Arrival
| Time | N/A |
|---|---|
| Airport | Taiwan Taoyuan International Airport (RCTP) |
| Time | Latitude | Longitude | Altitude | Speed | Heading |
|---|---|---|---|---|---|
| 2026-05-08 04:47 | 42.78551 | 141.67522 | 73 ft | 0 kts | 83° |
| 2026-05-08 04:52 | 42.78551 | 141.67521 | 73 ft | 0 kts | 83° |
| 2026-05-08 04:57 | 42.78551 | 141.67520 | 101 ft | 0 kts | 83° |
| 2026-05-08 05:01 | 42.78551 | 141.67519 | 73 ft | 0 kts | 83° |
| 2026-05-08 05:04 | 42.78550 | 141.67509 | 73 ft | 4 kts | 83° |
| 2026-05-08 05:04 | 42.78547 | 141.67473 | 64 ft | 3 kts | 83° |
| 2026-05-08 05:04 | 42.78543 | 141.67444 | 66 ft | 4 kts | 66° |
| 2026-05-08 05:04 | 42.78527 | 141.67418 | 66 ft | 4 kts | 24° |
| 2026-05-08 05:05 | 42.78506 | 141.67413 | 72 ft | 1 kts | 353° |
| 2026-05-08 05:08 | 42.78506 | 141.67414 | 72 ft | 0 kts | 353° |
| 2026-05-08 05:08 | 42.78506 | 141.67413 | 73 ft | 1 kts | 353° |
| 2026-05-08 05:08 | 42.78522 | 141.67412 | 69 ft | 4 kts | 357° |
| 2026-05-08 05:08 | 42.78555 | 141.67409 | 68 ft | 6 kts | 354° |
| 2026-05-08 05:09 | 42.78605 | 141.67402 | 67 ft | 8 kts | 353° |
| 2026-05-08 05:09 | 42.78670 | 141.67389 | 65 ft | 11 kts | 351° |
| 2026-05-08 05:09 | 42.78751 | 141.67372 | 72 ft | 13 kts | 354° |
| 2026-05-08 05:09 | 42.78847 | 141.67357 | 65 ft | 15 kts | 352° |
| 2026-05-08 05:10 | 42.78955 | 141.67337 | 68 ft | 17 kts | 352° |
| 2026-05-08 05:10 | 42.79165 | 141.67299 | 68 ft | 4 kts | 356° |
| 2026-05-08 05:10 | 42.79197 | 141.67306 | 68 ft | 6 kts | 25° |
| 2026-05-08 05:11 | 42.79224 | 141.67359 | 72 ft | 8 kts | 79° |
| 2026-05-08 05:11 | 42.79232 | 141.67446 | 73 ft | 11 kts | 83° |
| 2026-05-08 05:11 | 42.79243 | 141.67556 | 65 ft | 13 kts | 82° |
| 2026-05-08 05:11 | 42.79255 | 141.67685 | 68 ft | 15 kts | 82° |
| 2026-05-08 05:12 | 42.79269 | 141.67833 | 69 ft | 17 kts | 83° |
| 2026-05-08 05:12 | 42.79261 | 141.67999 | 73 ft | 18 kts | 95° |
| 2026-05-08 05:12 | 42.79239 | 141.68131 | 66 ft | 12 kts | 113° |
| 2026-05-08 05:12 | 42.79196 | 141.68239 | 66 ft | 14 kts | 123° |
| 2026-05-08 05:13 | 42.79139 | 141.68358 | 66 ft | 16 kts | 123° |
| 2026-05-08 05:13 | 42.79056 | 141.68464 | 72 ft | 16 kts | 146° |
| 2026-05-08 05:13 | 42.78998 | 141.68508 | 70 ft | 0 kts | 156° |
| 2026-05-08 05:14 | 42.78996 | 141.68509 | 71 ft | 2 kts | 156° |
| 2026-05-08 05:14 | 42.78971 | 141.68523 | 70 ft | 6 kts | 154° |
| 2026-05-08 05:15 | 42.78940 | 141.68581 | 71 ft | 9 kts | 100° |
| 2026-05-08 05:15 | 42.78932 | 141.68672 | 70 ft | 11 kts | 115° |
| 2026-05-08 05:15 | 42.78883 | 141.68766 | 74 ft | 13 kts | 143° |
| 2026-05-08 05:15 | 42.78792 | 141.68821 | 66 ft | 15 kts | 167° |
| 2026-05-08 05:16 | 42.78756 | 141.68829 | 68 ft | 0 kts | 139° |
| 2026-05-08 05:16 | 42.78754 | 141.68830 | 69 ft | 2 kts | 142° |
| 2026-05-08 05:16 | 42.78741 | 141.68834 | 68 ft | 0 kts | 180° |
| 2026-05-08 05:17 | 42.78575 | 141.68859 | 66 ft | 66 kts | 173° |
| 2026-05-08 05:17 | 42.77788 | 141.68991 | 70 ft | 160 kts | 175° |
| 2026-05-08 05:17 | 42.76629 | 141.69119 | 1101 ft | 169 kts | 175° |
| 2026-05-08 05:17 | 42.75793 | 141.69228 | 1797 ft | 190 kts | 174° |
| 2026-05-08 05:18 | 42.74050 | 141.69556 | 2867 ft | 204 kts | 168° |
| 2026-05-08 05:18 | 42.72553 | 141.69934 | 3151 ft | 237 kts | 171° |
| 2026-05-08 05:18 | 42.71531 | 141.70155 | 3505 ft | 249 kts | 171° |
| 2026-05-08 05:18 | 42.69788 | 141.70512 | 4375 ft | 255 kts | 171° |
| 2026-05-08 05:19 | 42.68032 | 141.70863 | 5416 ft | 257 kts | 172° |
| 2026-05-08 05:19 | 42.66247 | 141.71215 | 6361 ft | 260 kts | 173° |
| 2026-05-08 05:19 | 42.63840 | 141.71684 | 7565 ft | 264 kts | 174° |
| 2026-05-08 05:19 | 42.62604 | 141.71924 | 8178 ft | 266 kts | 175° |
| 2026-05-08 05:20 | 42.60778 | 141.72271 | 9076 ft | 268 kts | 178° |
| 2026-05-08 05:20 | 42.58954 | 141.72205 | 9904 ft | 265 kts | 196° |
| 2026-05-08 05:20 | 42.57265 | 141.71205 | 10524 ft | 270 kts | 218° |
| 2026-05-08 05:20 | 42.55975 | 141.69264 | 10886 ft | 289 kts | 237° |
| 2026-05-08 05:21 | 42.54992 | 141.66776 | 11198 ft | 309 kts | 242° |
| 2026-05-08 05:21 | 42.53981 | 141.64087 | 11467 ft | 329 kts | 241° |
| 2026-05-08 05:21 | 42.52892 | 141.61260 | 11720 ft | 348 kts | 241° |
| 2026-05-08 05:21 | 42.51730 | 141.58305 | 12041 ft | 360 kts | 240° |
| 2026-05-08 05:22 | 42.50530 | 141.55297 | 12595 ft | 364 kts | 240° |
| 2026-05-08 05:22 | 42.49318 | 141.52274 | 13302 ft | 366 kts | 240° |
| 2026-05-08 05:22 | 42.48096 | 141.49234 | 13936 ft | 368 kts | 240° |
| 2026-05-08 05:22 | 42.46863 | 141.46171 | 14441 ft | 372 kts | 240° |
| 2026-05-08 05:23 | 42.45617 | 141.43081 | 14997 ft | 376 kts | 240° |
| 2026-05-08 05:23 | 42.44356 | 141.39959 | 15646 ft | 381 kts | 240° |
| 2026-05-08 05:23 | 42.43075 | 141.36796 | 16270 ft | 384 kts | 240° |
| 2026-05-08 05:23 | 42.41787 | 141.33618 | 16859 ft | 388 kts | 240° |
| 2026-05-08 05:24 | 42.40485 | 141.30406 | 17435 ft | 391 kts | 240° |
| 2026-05-08 05:24 | 42.39169 | 141.27163 | 18019 ft | 395 kts | 240° |
| 2026-05-08 05:24 | 42.37844 | 141.23900 | 18514 ft | 397 kts | 240° |
| 2026-05-08 05:24 | 42.36516 | 141.20634 | 19110 ft | 397 kts | 240° |
| 2026-05-08 05:25 | 42.35185 | 141.17358 | 19793 ft | 397 kts | 240° |
| 2026-05-08 05:25 | 42.33853 | 141.14093 | 20478 ft | 396 kts | 240° |
| 2026-05-08 05:25 | 42.32519 | 141.10836 | 21274 ft | 397 kts | 240° |
| 2026-05-08 05:25 | 42.31185 | 141.07574 | 22010 ft | 396 kts | 240° |
| 2026-05-08 05:26 | 42.29855 | 141.04316 | 22619 ft | 396 kts | 240° |
| 2026-05-08 05:26 | 42.28523 | 141.01060 | 23175 ft | 397 kts | 240° |
| 2026-05-08 05:26 | 42.27185 | 140.97798 | 23678 ft | 397 kts | 239° |
| 2026-05-08 05:26 | 42.25844 | 140.94536 | 24084 ft | 399 kts | 239° |
| 2026-05-08 05:27 | 42.24497 | 140.91257 | 24448 ft | 400 kts | 239° |
| 2026-05-08 05:27 | 42.23148 | 140.87972 | 24915 ft | 399 kts | 239° |
| 2026-05-08 05:27 | 42.21810 | 140.84718 | 25409 ft | 396 kts | 239° |
| 2026-05-08 05:27 | 42.20472 | 140.81472 | 25891 ft | 394 kts | 238° |
| 2026-05-08 05:28 | 42.19143 | 140.78253 | 26354 ft | 392 kts | 238° |
| 2026-05-08 05:28 | 42.17818 | 140.75048 | 26804 ft | 390 kts | 238° |
| 2026-05-08 05:28 | 42.16496 | 140.71855 | 27255 ft | 389 kts | 238° |
| 2026-05-08 05:28 | 42.15180 | 140.68679 | 27700 ft | 387 kts | 237° |
| 2026-05-08 05:29 | 42.13874 | 140.65532 | 28163 ft | 385 kts | 237° |
| 2026-05-08 05:29 | 42.12572 | 140.62390 | 28614 ft | 383 kts | 237° |
| 2026-05-08 05:29 | 42.11269 | 140.59267 | 29045 ft | 381 kts | 236° |
| 2026-05-08 05:29 | 42.09812 | 140.56316 | 29473 ft | 377 kts | 230° |
| 2026-05-08 05:30 | 42.08045 | 140.53738 | 29866 ft | 374 kts | 222° |
| 2026-05-08 05:30 | 42.05991 | 140.51606 | 30185 ft | 373 kts | 214° |
| 2026-05-08 05:30 | 42.03700 | 140.49969 | 30522 ft | 375 kts | 207° |
| 2026-05-08 05:30 | 42.01214 | 140.48823 | 30852 ft | 379 kts | 201° |
| 2026-05-08 05:31 | 41.98678 | 140.47892 | 31185 ft | 378 kts | 201° |
| 2026-05-08 05:31 | 41.96181 | 140.46991 | 31553 ft | 375 kts | 201° |
| 2026-05-08 05:31 | 41.93664 | 140.46069 | 31878 ft | 374 kts | 201° |
| 2026-05-08 05:31 | 41.91160 | 140.45143 | 32172 ft | 373 kts | 201° |
| 2026-05-08 05:32 | 41.88662 | 140.44215 | 32462 ft | 372 kts | 201° |
| 2026-05-08 05:32 | 41.86171 | 140.43289 | 32739 ft | 372 kts | 201° |
| 2026-05-08 05:32 | 41.83683 | 140.42363 | 33037 ft | 371 kts | 201° |
| 2026-05-08 05:32 | 41.81192 | 140.41436 | 33325 ft | 370 kts | 201° |
| 2026-05-08 05:33 | 41.78712 | 140.40514 | 33614 ft | 370 kts | 201° |
| 2026-05-08 05:33 | 41.76234 | 140.39593 | 33732 ft | 369 kts | 201° |
| 2026-05-08 05:33 | 41.73765 | 140.38676 | 33715 ft | 369 kts | 200° |
| 2026-05-08 05:34 | 41.68816 | 140.36842 | 33719 ft | 368 kts | 201° |
| 2026-05-08 05:34 | 41.63895 | 140.35020 | 33699 ft | 367 kts | 200° |
| 2026-05-08 05:35 | 41.58964 | 140.33194 | 33701 ft | 369 kts | 200° |
| 2026-05-08 05:35 | 41.54024 | 140.31377 | 33703 ft | 368 kts | 200° |
| 2026-05-08 05:36 | 41.49104 | 140.29563 | 33679 ft | 367 kts | 201° |
| 2026-05-08 05:36 | 41.44183 | 140.27750 | 33700 ft | 368 kts | 201° |
| 2026-05-08 05:37 | 41.39253 | 140.25939 | 33696 ft | 368 kts | 201° |
| 2026-05-08 05:37 | 41.34318 | 140.24129 | 33654 ft | 369 kts | 201° |
| 2026-05-08 05:38 | 41.29352 | 140.22308 | 33692 ft | 371 kts | 201° |
| 2026-05-08 05:38 | 41.24378 | 140.20491 | 33697 ft | 371 kts | 201° |
| 2026-05-08 05:39 | 41.19401 | 140.18674 | 33698 ft | 371 kts | 201° |
| 2026-05-08 05:39 | 41.14461 | 140.16872 | 33700 ft | 371 kts | 200° |
| 2026-05-08 05:40 | 41.09471 | 140.15111 | 33662 ft | 371 kts | 200° |
| 2026-05-08 05:40 | 41.04470 | 140.13385 | 33683 ft | 372 kts | 200° |
| 2026-05-08 05:41 | 40.99447 | 140.11650 | 33689 ft | 372 kts | 200° |
| 2026-05-08 05:41 | 40.94432 | 140.09918 | 33687 ft | 372 kts | 200° |
| 2026-05-08 05:42 | 40.89417 | 140.08189 | 33696 ft | 372 kts | 200° |
| 2026-05-08 05:42 | 40.84405 | 140.06465 | 33639 ft | 373 kts | 200° |
| 2026-05-08 05:43 | 40.79373 | 140.04737 | 33675 ft | 375 kts | 200° |
| 2026-05-08 05:43 | 40.74319 | 140.03003 | 33682 ft | 375 kts | 200° |
| 2026-05-08 05:44 | 40.69267 | 140.01272 | 33702 ft | 374 kts | 200° |
| 2026-05-08 05:44 | 40.64224 | 139.99550 | 33688 ft | 374 kts | 200° |
| 2026-05-08 05:45 | 40.59191 | 139.97828 | 33652 ft | 375 kts | 200° |
| 2026-05-08 05:45 | 40.54129 | 139.96099 | 33679 ft | 376 kts | 200° |
| 2026-05-08 05:46 | 40.49064 | 139.94375 | 33687 ft | 376 kts | 200° |
| 2026-05-08 05:46 | 40.44060 | 139.92483 | 33682 ft | 371 kts | 206° |
| 2026-05-08 05:47 | 40.39452 | 139.89511 | 33685 ft | 368 kts | 211° |
| 2026-05-08 05:47 | 40.34903 | 139.86415 | 33686 ft | 369 kts | 211° |
| 2026-05-08 05:48 | 40.30325 | 139.83328 | 33669 ft | 371 kts | 211° |
| 2026-05-08 05:48 | 40.25739 | 139.80245 | 33680 ft | 371 kts | 211° |
| 2026-05-08 05:49 | 40.21133 | 139.77159 | 33687 ft | 371 kts | 211° |
| 2026-05-08 05:49 | 40.16539 | 139.74077 | 33676 ft | 371 kts | 211° |
| 2026-05-08 05:50 | 40.11949 | 139.71007 | 33690 ft | 370 kts | 211° |
| 2026-05-08 05:50 | 40.07360 | 139.67943 | 33683 ft | 370 kts | 211° |
| 2026-05-08 05:51 | 40.02788 | 139.64916 | 33655 ft | 373 kts | 210° |
| 2026-05-08 05:51 | 39.98140 | 139.61895 | 33679 ft | 373 kts | 210° |
| 2026-05-08 05:52 | 39.93491 | 139.58875 | 33686 ft | 373 kts | 210° |
| 2026-05-08 05:52 | 39.88845 | 139.55859 | 33691 ft | 373 kts | 210° |
| 2026-05-08 05:53 | 39.84200 | 139.52849 | 33683 ft | 373 kts | 210° |
| 2026-05-08 05:53 | 39.79554 | 139.49843 | 33689 ft | 373 kts | 210° |
| 2026-05-08 05:54 | 39.74899 | 139.46834 | 33666 ft | 374 kts | 211° |
| 2026-05-08 05:54 | 39.70235 | 139.43823 | 33676 ft | 375 kts | 211° |
| 2026-05-08 05:55 | 39.65567 | 139.40816 | 33679 ft | 375 kts | 211° |
| 2026-05-08 05:55 | 39.60897 | 139.37812 | 33683 ft | 375 kts | 211° |
| 2026-05-08 05:56 | 39.56219 | 139.34808 | 33689 ft | 375 kts | 211° |
| 2026-05-08 05:56 | 39.51546 | 139.31808 | 33684 ft | 375 kts | 211° |
| 2026-05-08 05:57 | 39.46868 | 139.28811 | 33665 ft | 376 kts | 211° |
| 2026-05-08 05:57 | 39.42172 | 139.25810 | 33686 ft | 377 kts | 211° |
| 2026-05-08 05:58 | 39.37481 | 139.22813 | 33692 ft | 377 kts | 211° |
| 2026-05-08 05:58 | 39.32775 | 139.19812 | 33690 ft | 377 kts | 211° |
| 2026-05-08 05:59 | 39.28071 | 139.16819 | 33700 ft | 377 kts | 211° |
| 2026-05-08 05:59 | 39.23366 | 139.13828 | 33700 ft | 377 kts | 211° |
| 2026-05-08 06:00 | 39.18662 | 139.10846 | 33697 ft | 377 kts | 211° |
| 2026-05-08 06:00 | 39.13954 | 139.07860 | 33704 ft | 377 kts | 211° |
| 2026-05-08 06:01 | 39.09256 | 139.04886 | 33726 ft | 377 kts | 211° |
| 2026-05-08 06:01 | 39.04573 | 139.01927 | 33704 ft | 374 kts | 211° |
| 2026-05-08 06:02 | 38.99927 | 138.98994 | 33711 ft | 374 kts | 211° |
| 2026-05-08 06:02 | 38.95254 | 138.96050 | 33709 ft | 374 kts | 211° |
| 2026-05-08 06:03 | 38.90555 | 138.93096 | 33697 ft | 376 kts | 211° |
| 2026-05-08 06:03 | 38.85856 | 138.90145 | 33704 ft | 376 kts | 211° |
| 2026-05-08 06:04 | 38.81152 | 138.87195 | 33718 ft | 376 kts | 211° |
| 2026-05-08 06:04 | 38.76453 | 138.84252 | 33717 ft | 376 kts | 211° |
| 2026-05-08 06:05 | 38.72556 | 138.81813 | 33722 ft | 374 kts | 211° |
| 2026-05-08 06:05 | 38.67875 | 138.78888 | 33713 ft | 374 kts | 211° |
| 2026-05-08 06:06 | 38.63185 | 138.75962 | 33706 ft | 377 kts | 211° |
| 2026-05-08 06:06 | 38.58466 | 138.73025 | 33716 ft | 377 kts | 211° |
| 2026-05-08 06:07 | 38.53765 | 138.70103 | 33707 ft | 376 kts | 211° |
| 2026-05-08 06:07 | 38.49062 | 138.67183 | 33715 ft | 376 kts | 211° |
| 2026-05-08 06:08 | 38.44355 | 138.64265 | 33714 ft | 376 kts | 211° |
| 2026-05-08 06:08 | 38.39656 | 138.61353 | 33670 ft | 375 kts | 211° |
| 2026-05-08 06:09 | 38.34945 | 138.58439 | 33701 ft | 378 kts | 211° |
| 2026-05-08 06:09 | 38.30210 | 138.55514 | 33714 ft | 378 kts | 211° |
| 2026-05-08 06:10 | 38.25474 | 138.52598 | 33724 ft | 378 kts | 211° |
| 2026-05-08 06:10 | 38.20751 | 138.49695 | 33722 ft | 377 kts | 211° |
| 2026-05-08 06:11 | 38.16066 | 138.46812 | 33729 ft | 377 kts | 211° |
| 2026-05-08 06:11 | 38.11310 | 138.43890 | 33697 ft | 378 kts | 211° |
| 2026-05-08 06:12 | 38.06994 | 138.40218 | 33723 ft | 370 kts | 225° |
| 2026-05-08 06:12 | 38.03900 | 138.35057 | 33733 ft | 369 kts | 239° |
| 2026-05-08 06:13 | 38.01421 | 138.29346 | 33741 ft | 370 kts | 239° |
| 2026-05-08 06:13 | 37.98930 | 138.23650 | 33741 ft | 370 kts | 239° |
| 2026-05-08 06:14 | 37.96421 | 138.17967 | 33745 ft | 369 kts | 239° |
| 2026-05-08 06:14 | 37.93912 | 138.12299 | 33744 ft | 369 kts | 239° |
| 2026-05-08 06:15 | 37.91413 | 138.06665 | 33741 ft | 369 kts | 239° |
| 2026-05-08 06:15 | 37.88882 | 138.00968 | 33746 ft | 369 kts | 239° |
| 2026-05-08 06:16 | 37.86380 | 137.95350 | 33747 ft | 369 kts | 239° |
| 2026-05-08 06:16 | 37.83858 | 137.89689 | 33743 ft | 369 kts | 239° |
| 2026-05-08 06:17 | 37.80075 | 137.81225 | 33739 ft | 369 kts | 239° |
| 2026-05-08 06:17 | 37.77549 | 137.75584 | 33748 ft | 369 kts | 239° |
| 2026-05-08 06:18 | 37.75023 | 137.69956 | 33745 ft | 368 kts | 239° |
| 2026-05-08 06:18 | 37.72492 | 137.64325 | 33750 ft | 368 kts | 239° |
| 2026-05-08 06:19 | 37.69962 | 137.58709 | 33748 ft | 368 kts | 239° |
| 2026-05-08 06:19 | 37.67434 | 137.53101 | 33747 ft | 367 kts | 239° |
| 2026-05-08 06:20 | 37.64907 | 137.47505 | 33747 ft | 366 kts | 239° |
| 2026-05-08 06:20 | 37.62380 | 137.41923 | 33754 ft | 366 kts | 239° |
| 2026-05-08 06:21 | 37.59845 | 137.36354 | 33755 ft | 366 kts | 239° |
| 2026-05-08 06:21 | 37.57327 | 137.30823 | 33761 ft | 361 kts | 239° |
| 2026-05-08 06:22 | 37.54827 | 137.25321 | 33764 ft | 362 kts | 239° |
| 2026-05-08 06:22 | 37.52327 | 137.19826 | 33768 ft | 362 kts | 239° |
| 2026-05-08 06:23 | 37.49822 | 137.14332 | 33771 ft | 362 kts | 239° |
| 2026-05-08 06:23 | 37.47340 | 137.08899 | 33765 ft | 359 kts | 239° |
| 2026-05-08 06:24 | 37.44842 | 137.03448 | 33795 ft | 360 kts | 239° |
| 2026-05-08 06:24 | 37.42342 | 136.97997 | 33789 ft | 359 kts | 239° |
| 2026-05-08 06:25 | 37.39842 | 136.92553 | 33783 ft | 359 kts | 239° |
| 2026-05-08 06:25 | 37.37346 | 136.87124 | 33775 ft | 358 kts | 239° |
| 2026-05-08 06:26 | 37.34836 | 136.81682 | 33789 ft | 359 kts | 239° |
| 2026-05-08 06:26 | 37.32332 | 136.76257 | 33775 ft | 360 kts | 239° |
| 2026-05-08 06:27 | 37.29825 | 136.70845 | 33808 ft | 357 kts | 239° |
| 2026-05-08 06:27 | 37.27342 | 136.65487 | 33779 ft | 354 kts | 239° |
| 2026-05-08 06:28 | 37.24857 | 136.60158 | 33778 ft | 354 kts | 239° |
| 2026-05-08 06:28 | 37.22377 | 136.54822 | 33786 ft | 354 kts | 239° |
| 2026-05-08 06:29 | 37.19898 | 136.49500 | 33783 ft | 353 kts | 239° |
| 2026-05-08 06:29 | 37.17428 | 136.44185 | 33797 ft | 353 kts | 239° |
| 2026-05-08 06:30 | 37.14965 | 136.38898 | 33795 ft | 353 kts | 239° |
| 2026-05-08 06:30 | 37.12470 | 136.33559 | 33798 ft | 353 kts | 239° |
| 2026-05-08 06:31 | 37.10005 | 136.28301 | 33799 ft | 352 kts | 239° |
| 2026-05-08 06:31 | 37.07527 | 136.23022 | 33791 ft | 351 kts | 239° |
| 2026-05-08 06:32 | 37.05050 | 136.17752 | 33800 ft | 351 kts | 239° |
| 2026-05-08 06:32 | 37.02566 | 136.12478 | 33796 ft | 351 kts | 239° |
| 2026-05-08 06:33 | 37.00087 | 136.07214 | 33794 ft | 351 kts | 239° |
| 2026-05-08 06:33 | 36.97603 | 136.01970 | 33808 ft | 351 kts | 239° |
| 2026-05-08 06:34 | 36.95125 | 135.96721 | 33801 ft | 351 kts | 239° |
| 2026-05-08 06:34 | 36.92637 | 135.91469 | 33807 ft | 351 kts | 239° |
| 2026-05-08 06:35 | 36.90149 | 135.86232 | 33800 ft | 351 kts | 239° |
| 2026-05-08 06:35 | 36.87659 | 135.80992 | 33797 ft | 351 kts | 239° |
| 2026-05-08 06:36 | 36.85158 | 135.75768 | 33810 ft | 351 kts | 239° |
| 2026-05-08 06:36 | 36.82662 | 135.70539 | 33804 ft | 351 kts | 239° |
| 2026-05-08 06:37 | 36.80169 | 135.65305 | 33805 ft | 351 kts | 239° |
| 2026-05-08 06:37 | 36.77668 | 135.60066 | 33812 ft | 351 kts | 239° |
| 2026-05-08 06:38 | 36.75163 | 135.54833 | 33812 ft | 351 kts | 239° |
| 2026-05-08 06:38 | 36.72655 | 135.49605 | 33816 ft | 351 kts | 239° |
| 2026-05-08 06:39 | 36.70147 | 135.44380 | 33817 ft | 351 kts | 239° |
| 2026-05-08 06:39 | 36.67634 | 135.39167 | 33819 ft | 351 kts | 239° |
| 2026-05-08 06:40 | 36.65125 | 135.33958 | 33823 ft | 351 kts | 239° |
| 2026-05-08 06:40 | 36.62615 | 135.28755 | 33823 ft | 351 kts | 239° |
| 2026-05-08 06:41 | 36.60102 | 135.23552 | 33827 ft | 350 kts | 239° |
| 2026-05-08 06:41 | 36.57606 | 135.18397 | 33825 ft | 350 kts | 239° |
| 2026-05-08 06:42 | 36.55090 | 135.13216 | 33827 ft | 350 kts | 239° |
| 2026-05-08 06:42 | 36.52571 | 135.08034 | 33799 ft | 350 kts | 239° |
| 2026-05-08 06:43 | 36.50045 | 135.02838 | 33829 ft | 352 kts | 239° |
| 2026-05-08 06:43 | 36.47502 | 134.97632 | 33836 ft | 352 kts | 239° |
| 2026-05-08 06:44 | 36.44966 | 134.92429 | 33839 ft | 352 kts | 239° |
| 2026-05-08 06:44 | 36.42426 | 134.87232 | 33844 ft | 351 kts | 240° |
| 2026-05-08 06:45 | 36.39891 | 134.82058 | 33843 ft | 351 kts | 240° |
| 2026-05-08 06:45 | 36.37353 | 134.76881 | 33851 ft | 351 kts | 240° |
| 2026-05-08 06:46 | 36.34819 | 134.71713 | 33856 ft | 351 kts | 240° |
| 2026-05-08 06:46 | 36.32279 | 134.66550 | 33859 ft | 350 kts | 240° |
| 2026-05-08 06:47 | 36.29737 | 134.61405 | 33858 ft | 350 kts | 240° |
| 2026-05-08 06:47 | 36.27199 | 134.56257 | 33861 ft | 350 kts | 240° |
| 2026-05-08 06:48 | 36.24658 | 134.51113 | 33861 ft | 350 kts | 240° |
| 2026-05-08 06:48 | 36.22104 | 134.45979 | 33862 ft | 350 kts | 240° |
| 2026-05-08 06:49 | 36.19548 | 134.40837 | 33868 ft | 350 kts | 240° |
| 2026-05-08 06:49 | 36.16998 | 134.35699 | 33868 ft | 350 kts | 240° |
| 2026-05-08 06:50 | 36.14601 | 134.30842 | 33871 ft | 350 kts | 240° |
| 2026-05-08 06:50 | 36.11979 | 134.25571 | 33869 ft | 352 kts | 240° |
| 2026-05-08 06:51 | 36.09707 | 134.21019 | 33877 ft | 352 kts | 240° |
| 2026-05-08 06:51 | 36.07137 | 134.15867 | 33882 ft | 352 kts | 240° |
| 2026-05-08 06:52 | 36.04568 | 134.10723 | 33885 ft | 352 kts | 240° |
| 2026-05-08 06:52 | 36.01988 | 134.05578 | 33886 ft | 352 kts | 240° |
| 2026-05-08 06:53 | 35.99840 | 134.01298 | 33888 ft | 353 kts | 240° |
| 2026-05-08 06:53 | 35.96817 | 133.95285 | 33890 ft | 353 kts | 240° |
| 2026-05-08 06:54 | 35.94669 | 133.91018 | 33890 ft | 353 kts | 240° |
| 2026-05-08 06:54 | 35.92082 | 133.85873 | 33893 ft | 353 kts | 240° |
| 2026-05-08 06:55 | 35.89490 | 133.80737 | 33891 ft | 353 kts | 240° |
| 2026-05-08 06:55 | 35.86899 | 133.75609 | 33891 ft | 353 kts | 240° |
| 2026-05-08 06:56 | 35.84306 | 133.70482 | 33883 ft | 353 kts | 240° |
| 2026-05-08 06:56 | 35.81703 | 133.65348 | 33893 ft | 353 kts | 240° |
| 2026-05-08 06:57 | 35.79105 | 133.60229 | 33923 ft | 351 kts | 241° |
| 2026-05-08 06:57 | 35.76515 | 133.55125 | 33904 ft | 352 kts | 241° |
| 2026-05-08 06:58 | 35.73914 | 133.50008 | 33871 ft | 354 kts | 240° |
| 2026-05-08 06:58 | 35.71294 | 133.44877 | 33898 ft | 354 kts | 240° |
| 2026-05-08 06:59 | 35.68670 | 133.39751 | 33916 ft | 354 kts | 241° |
| 2026-05-08 06:59 | 35.66046 | 133.34621 | 33896 ft | 354 kts | 241° |
| 2026-05-08 07:00 | 35.63422 | 133.29487 | 33895 ft | 355 kts | 240° |
| 2026-05-08 07:00 | 35.60785 | 133.24356 | 33904 ft | 355 kts | 240° |
| 2026-05-08 07:01 | 35.58156 | 133.19227 | 33924 ft | 354 kts | 241° |
| 2026-05-08 07:01 | 35.55540 | 133.14136 | 33849 ft | 356 kts | 240° |
| 2026-05-08 07:02 | 35.52348 | 133.09422 | 33898 ft | 366 kts | 227° |
| 2026-05-08 07:02 | 35.47994 | 133.05984 | 33911 ft | 378 kts | 217° |
| 2026-05-08 07:03 | 35.43323 | 133.02988 | 33909 ft | 379 kts | 217° |
| 2026-05-08 07:03 | 35.38662 | 132.99963 | 33896 ft | 380 kts | 217° |
| 2026-05-08 07:04 | 35.33992 | 132.96926 | 33904 ft | 380 kts | 217° |
| 2026-05-08 07:04 | 35.29324 | 132.93881 | 33896 ft | 380 kts | 217° |
| 2026-05-08 07:05 | 35.24655 | 132.90851 | 33899 ft | 380 kts | 217° |
| 2026-05-08 07:05 | 35.19984 | 132.87825 | 33900 ft | 380 kts | 217° |
| 2026-05-08 07:06 | 35.15326 | 132.84783 | 33916 ft | 380 kts | 217° |
| 2026-05-08 07:06 | 35.10658 | 132.81697 | 33869 ft | 384 kts | 218° |
| 2026-05-08 07:07 | 35.05970 | 132.78609 | 33927 ft | 382 kts | 218° |
| 2026-05-08 07:07 | 35.01286 | 132.75529 | 33912 ft | 382 kts | 218° |
| 2026-05-08 07:08 | 34.96606 | 132.72453 | 33893 ft | 384 kts | 218° |
| 2026-05-08 07:08 | 34.91897 | 132.69345 | 33913 ft | 385 kts | 218° |
| 2026-05-08 07:09 | 34.87186 | 132.66247 | 33907 ft | 384 kts | 218° |
| 2026-05-08 07:09 | 34.82495 | 132.63175 | 33874 ft | 388 kts | 217° |
| 2026-05-08 07:10 | 34.77723 | 132.60054 | 33911 ft | 384 kts | 218° |
| 2026-05-08 07:10 | 34.73050 | 132.56999 | 33900 ft | 385 kts | 218° |
| 2026-05-08 07:11 | 34.68326 | 132.53917 | 33902 ft | 385 kts | 218° |
| 2026-05-08 07:11 | 34.63604 | 132.50837 | 33909 ft | 385 kts | 218° |
| 2026-05-08 07:12 | 34.58898 | 132.47777 | 33900 ft | 383 kts | 218° |
| 2026-05-08 07:12 | 34.54176 | 132.44709 | 33892 ft | 387 kts | 217° |
| 2026-05-08 07:13 | 34.49416 | 132.41616 | 33895 ft | 389 kts | 217° |
| 2026-05-08 07:13 | 34.44651 | 132.38521 | 33889 ft | 388 kts | 217° |
| 2026-05-08 07:14 | 34.39896 | 132.35444 | 33878 ft | 387 kts | 217° |
| 2026-05-08 07:14 | 34.35144 | 132.32358 | 33896 ft | 388 kts | 217° |
| 2026-05-08 07:15 | 34.30389 | 132.29266 | 33903 ft | 388 kts | 217° |
| 2026-05-08 07:15 | 34.25621 | 132.26171 | 33902 ft | 389 kts | 217° |
| 2026-05-08 07:16 | 34.20825 | 132.23059 | 33884 ft | 393 kts | 217° |
| 2026-05-08 07:16 | 34.16003 | 132.19939 | 33901 ft | 393 kts | 217° |
| 2026-05-08 07:17 | 34.11197 | 132.16840 | 33904 ft | 391 kts | 217° |
| 2026-05-08 07:17 | 34.06297 | 132.13866 | 33899 ft | 401 kts | 213° |
| 2026-05-08 07:18 | 34.01170 | 132.11197 | 33899 ft | 401 kts | 213° |
| 2026-05-08 07:18 | 33.96073 | 132.08550 | 33904 ft | 402 kts | 213° |
| 2026-05-08 07:19 | 33.90925 | 132.05874 | 33892 ft | 404 kts | 212° |
| 2026-05-08 07:19 | 33.85765 | 132.03199 | 33905 ft | 404 kts | 213° |
| 2026-05-08 07:20 | 33.80604 | 132.00530 | 33914 ft | 404 kts | 212° |
| 2026-05-08 07:20 | 33.75445 | 131.97859 | 33896 ft | 405 kts | 212° |
| 2026-05-08 07:21 | 33.70270 | 131.95177 | 33910 ft | 405 kts | 212° |
| 2026-05-08 07:21 | 33.65092 | 131.92494 | 33915 ft | 405 kts | 212° |
| 2026-05-08 07:22 | 33.59914 | 131.89813 | 33889 ft | 405 kts | 212° |
| 2026-05-08 07:22 | 33.54733 | 131.87141 | 33900 ft | 406 kts | 212° |
| 2026-05-08 07:23 | 33.49544 | 131.84465 | 33904 ft | 406 kts | 212° |
| 2026-05-08 07:23 | 33.44357 | 131.81793 | 33869 ft | 406 kts | 212° |
| 2026-05-08 07:24 | 33.39158 | 131.79119 | 33897 ft | 407 kts | 212° |
| 2026-05-08 07:24 | 33.33955 | 131.76449 | 33914 ft | 407 kts | 212° |
| 2026-05-08 07:25 | 33.28749 | 131.73774 | 33885 ft | 408 kts | 211° |
| 2026-05-08 07:26 | 33.21016 | 131.69589 | 33922 ft | 402 kts | 218° |
| 2026-05-08 07:26 | 33.16280 | 131.66086 | 33933 ft | 400 kts | 219° |
| 2026-05-08 07:27 | 33.11560 | 131.62559 | 33938 ft | 400 kts | 219° |
| 2026-05-08 07:27 | 33.06834 | 131.59048 | 33942 ft | 400 kts | 219° |
| 2026-05-08 07:28 | 33.02097 | 131.55541 | 33941 ft | 400 kts | 219° |
| 2026-05-08 07:28 | 32.97369 | 131.52041 | 33921 ft | 401 kts | 219° |
| 2026-05-08 07:29 | 32.92630 | 131.48535 | 33941 ft | 401 kts | 219° |
| 2026-05-08 07:29 | 32.87883 | 131.45032 | 33947 ft | 401 kts | 218° |
| 2026-05-08 07:30 | 32.83130 | 131.41535 | 33958 ft | 402 kts | 218° |
| 2026-05-08 07:30 | 32.78388 | 131.38013 | 33931 ft | 401 kts | 219° |
| 2026-05-08 07:31 | 32.73669 | 131.34471 | 33965 ft | 403 kts | 219° |
| 2026-05-08 07:31 | 32.68899 | 131.30905 | 33959 ft | 405 kts | 218° |
| 2026-05-08 07:32 | 32.64127 | 131.27341 | 33940 ft | 407 kts | 218° |
| 2026-05-08 07:32 | 32.59316 | 131.23749 | 33962 ft | 408 kts | 218° |
| 2026-05-08 07:33 | 32.54533 | 131.20198 | 33966 ft | 407 kts | 218° |
| 2026-05-08 07:33 | 32.49716 | 131.16625 | 33937 ft | 406 kts | 218° |
| 2026-05-08 07:34 | 32.44948 | 131.13078 | 33963 ft | 409 kts | 218° |
| 2026-05-08 07:34 | 32.40139 | 131.09505 | 33952 ft | 406 kts | 218° |
| 2026-05-08 07:35 | 32.35318 | 131.06014 | 33991 ft | 406 kts | 217° |
| 2026-05-08 07:35 | 32.30496 | 131.02538 | 33959 ft | 406 kts | 217° |
| 2026-05-08 07:36 | 32.25676 | 130.99051 | 33980 ft | 406 kts | 217° |
| 2026-05-08 07:36 | 32.20861 | 130.95575 | 33998 ft | 405 kts | 217° |
| 2026-05-08 07:37 | 32.16053 | 130.92105 | 33926 ft | 406 kts | 217° |
| 2026-05-08 07:37 | 32.11229 | 130.88622 | 33984 ft | 407 kts | 217° |
| 2026-05-08 07:38 | 32.06431 | 130.85093 | 33984 ft | 407 kts | 218° |
| 2026-05-08 07:38 | 32.01626 | 130.81569 | 33944 ft | 406 kts | 217° |
| 2026-05-08 07:39 | 31.96826 | 130.78056 | 33965 ft | 406 kts | 217° |
| 2026-05-08 07:39 | 31.92027 | 130.74547 | 33967 ft | 406 kts | 217° |
| 2026-05-08 07:40 | 31.87228 | 130.71046 | 33962 ft | 406 kts | 217° |
| 2026-05-08 07:40 | 31.82435 | 130.67555 | 33963 ft | 404 kts | 217° |
| 2026-05-08 07:41 | 31.77654 | 130.64078 | 33972 ft | 404 kts | 217° |
| 2026-05-08 07:41 | 31.73675 | 130.61181 | 33957 ft | 404 kts | 217° |
| 2026-05-08 07:42 | 31.68577 | 130.56543 | 33936 ft | 395 kts | 231° |
| 2026-05-08 07:42 | 31.65749 | 130.52332 | 33966 ft | 392 kts | 234° |
| 2026-05-08 07:43 | 31.62438 | 130.47241 | 34011 ft | 392 kts | 234° |
| 2026-05-08 07:43 | 31.59099 | 130.42151 | 34002 ft | 395 kts | 234° |
| 2026-05-08 07:44 | 31.55736 | 130.37052 | 33999 ft | 395 kts | 234° |
| 2026-05-08 07:44 | 31.52376 | 130.31962 | 34012 ft | 395 kts | 234° |
| 2026-05-08 07:45 | 31.49014 | 130.26865 | 34010 ft | 395 kts | 234° |
| 2026-05-08 07:45 | 31.45669 | 130.21807 | 34015 ft | 396 kts | 234° |
| 2026-05-08 07:46 | 31.42295 | 130.16718 | 33997 ft | 396 kts | 234° |
| 2026-05-08 07:46 | 31.38918 | 130.11631 | 34019 ft | 395 kts | 234° |
| 2026-05-08 07:47 | 31.35544 | 130.06553 | 34018 ft | 395 kts | 234° |
| 2026-05-08 07:47 | 31.32169 | 130.01476 | 34032 ft | 396 kts | 234° |
| 2026-05-08 07:48 | 31.28780 | 129.96388 | 33987 ft | 397 kts | 234° |
| 2026-05-08 07:48 | 31.25389 | 129.91298 | 34015 ft | 397 kts | 234° |
| 2026-05-08 07:49 | 31.21986 | 129.86203 | 34019 ft | 397 kts | 234° |
| 2026-05-08 07:49 | 31.18599 | 129.81135 | 34025 ft | 397 kts | 234° |
| 2026-05-08 07:50 | 31.15190 | 129.76054 | 34018 ft | 398 kts | 234° |
| 2026-05-08 07:50 | 31.11774 | 129.70952 | 34031 ft | 399 kts | 234° |
| 2026-05-08 07:51 | 31.08348 | 129.65860 | 34037 ft | 399 kts | 234° |
| 2026-05-08 07:51 | 31.04922 | 129.60761 | 34036 ft | 399 kts | 234° |
| 2026-05-08 07:52 | 31.01482 | 129.55680 | 34008 ft | 400 kts | 234° |
| 2026-05-08 07:52 | 30.98035 | 129.50571 | 34030 ft | 401 kts | 234° |
| 2026-05-08 07:53 | 30.94590 | 129.45455 | 34037 ft | 401 kts | 234° |
| 2026-05-08 07:53 | 30.91128 | 129.40341 | 34037 ft | 401 kts | 234° |
| 2026-05-08 07:54 | 30.87706 | 129.35248 | 34019 ft | 401 kts | 234° |
| 2026-05-08 07:54 | 30.84254 | 129.30146 | 34045 ft | 403 kts | 234° |
| 2026-05-08 07:55 | 30.80784 | 129.25027 | 34051 ft | 403 kts | 234° |
| 2026-05-08 07:55 | 30.77317 | 129.19909 | 34046 ft | 403 kts | 235° |
| 2026-05-08 07:56 | 30.73916 | 129.14732 | 34048 ft | 403 kts | 235° |
| 2026-05-08 07:56 | 30.70513 | 129.09551 | 34047 ft | 404 kts | 235° |
| 2026-05-08 07:57 | 30.67100 | 129.04367 | 34051 ft | 404 kts | 235° |
| 2026-05-08 07:57 | 30.63688 | 128.99181 | 34052 ft | 404 kts | 235° |
| 2026-05-08 07:58 | 30.60277 | 128.94002 | 34053 ft | 404 kts | 235° |
| 2026-05-08 07:58 | 30.56855 | 128.88821 | 34064 ft | 405 kts | 235° |
| 2026-05-08 07:59 | 30.53423 | 128.83629 | 34059 ft | 405 kts | 235° |
| 2026-05-08 07:59 | 30.49992 | 128.78443 | 34060 ft | 405 kts | 235° |
| 2026-05-08 08:00 | 30.46561 | 128.73269 | 34062 ft | 405 kts | 235° |
| 2026-05-08 08:00 | 30.43110 | 128.68097 | 34045 ft | 406 kts | 235° |
| 2026-05-08 08:01 | 30.39656 | 128.62911 | 34070 ft | 406 kts | 236° |
| 2026-05-08 08:01 | 30.36214 | 128.57727 | 34063 ft | 407 kts | 236° |
| 2026-05-08 08:02 | 30.32757 | 128.52535 | 34065 ft | 407 kts | 236° |
| 2026-05-08 08:02 | 30.29304 | 128.47342 | 34051 ft | 407 kts | 236° |
| 2026-05-08 08:03 | 30.25881 | 128.42213 | 34063 ft | 407 kts | 236° |
| 2026-05-08 08:03 | 30.22412 | 128.37023 | 34066 ft | 408 kts | 236° |
| 2026-05-08 08:04 | 30.18941 | 128.31839 | 34069 ft | 408 kts | 236° |
| 2026-05-08 08:04 | 30.15474 | 128.26673 | 34072 ft | 407 kts | 236° |
| 2026-05-08 08:05 | 30.11997 | 128.21492 | 34071 ft | 407 kts | 236° |
| 2026-05-08 08:05 | 30.08527 | 128.16335 | 34081 ft | 408 kts | 236° |
| 2026-05-08 08:06 | 30.05039 | 128.11158 | 34076 ft | 408 kts | 236° |
| 2026-05-08 08:06 | 30.01553 | 128.05983 | 34077 ft | 408 kts | 236° |
| 2026-05-08 08:07 | 29.98147 | 128.00935 | 34069 ft | 406 kts | 236° |
| 2026-05-08 08:07 | 29.94677 | 127.95798 | 34079 ft | 406 kts | 236° |
| 2026-05-08 08:08 | 29.91190 | 127.90655 | 34083 ft | 407 kts | 236° |
| 2026-05-08 08:08 | 29.87734 | 127.85554 | 34080 ft | 407 kts | 236° |
| 2026-05-08 08:09 | 29.84120 | 127.80520 | 34066 ft | 407 kts | 234° |
| 2026-05-08 08:09 | 29.80436 | 127.75573 | 34082 ft | 407 kts | 234° |
| 2026-05-08 08:10 | 29.76749 | 127.70623 | 34096 ft | 407 kts | 234° |
| 2026-05-08 08:10 | 29.73069 | 127.65688 | 34083 ft | 407 kts | 234° |
| 2026-05-08 08:11 | 29.69379 | 127.60746 | 34045 ft | 407 kts | 234° |
| 2026-05-08 08:11 | 29.65693 | 127.55819 | 34072 ft | 407 kts | 234° |
| 2026-05-08 08:12 | 29.61995 | 127.50882 | 34080 ft | 407 kts | 234° |
| 2026-05-08 08:12 | 29.58333 | 127.45952 | 34092 ft | 406 kts | 236° |
| 2026-05-08 08:13 | 29.54845 | 127.40909 | 34087 ft | 405 kts | 236° |
| 2026-05-08 08:13 | 29.51341 | 127.35828 | 34065 ft | 407 kts | 236° |
| 2026-05-08 08:14 | 29.47815 | 127.30726 | 34078 ft | 407 kts | 236° |
| 2026-05-08 08:14 | 29.44298 | 127.25647 | 34078 ft | 407 kts | 236° |
| 2026-05-08 08:15 | 29.40772 | 127.20562 | 34092 ft | 407 kts | 236° |
| 2026-05-08 08:15 | 29.37245 | 127.15480 | 34050 ft | 409 kts | 236° |
| 2026-05-08 08:16 | 29.33692 | 127.10366 | 34082 ft | 410 kts | 236° |
| 2026-05-08 08:16 | 29.30137 | 127.05260 | 34078 ft | 411 kts | 236° |
| 2026-05-08 08:17 | 29.26576 | 127.00149 | 34082 ft | 410 kts | 236° |
| 2026-05-08 08:17 | 29.23015 | 126.95041 | 34087 ft | 410 kts | 236° |
| 2026-05-08 08:18 | 29.19446 | 126.89926 | 34081 ft | 411 kts | 236° |
| 2026-05-08 08:18 | 29.15875 | 126.84824 | 34090 ft | 411 kts | 236° |
| 2026-05-08 08:19 | 29.12294 | 126.79717 | 34084 ft | 411 kts | 236° |
| 2026-05-08 08:19 | 29.08717 | 126.74610 | 34099 ft | 411 kts | 236° |
| 2026-05-08 08:20 | 29.05166 | 126.69548 | 34051 ft | 411 kts | 236° |
| 2026-05-08 08:20 | 29.01582 | 126.64448 | 34091 ft | 411 kts | 236° |
| 2026-05-08 08:21 | 28.97995 | 126.59353 | 34099 ft | 412 kts | 236° |
| 2026-05-08 08:21 | 28.94328 | 126.54323 | 34092 ft | 412 kts | 235° |
| 2026-05-08 08:22 | 28.90621 | 126.49321 | 34109 ft | 412 kts | 235° |
| 2026-05-08 08:22 | 28.86930 | 126.44347 | 34133 ft | 411 kts | 235° |
| 2026-05-08 08:23 | 28.86033 | 126.43138 | 34133 ft | 412 kts | 235° |
| 2026-05-08 08:23 | 28.83388 | 126.39591 | 34086 ft | 382 kts | 235° |
| 2026-05-08 08:24 | 28.79937 | 126.34933 | 34094 ft | 392 kts | 235° |
| 2026-05-08 08:24 | 28.76339 | 126.30085 | 34112 ft | 409 kts | 235° |
| 2026-05-08 08:25 | 28.72625 | 126.25104 | 34078 ft | 415 kts | 235° |
| 2026-05-08 08:25 | 28.68870 | 126.20074 | 34092 ft | 417 kts | 235° |
| 2026-05-08 08:26 | 28.65114 | 126.15050 | 34093 ft | 417 kts | 235° |
| 2026-05-08 08:26 | 28.61435 | 126.09960 | 34096 ft | 416 kts | 236° |
| 2026-05-08 08:27 | 28.57802 | 126.04829 | 34103 ft | 416 kts | 236° |
| 2026-05-08 08:27 | 28.54200 | 125.99746 | 34100 ft | 416 kts | 236° |
| 2026-05-08 08:28 | 28.50570 | 125.94636 | 34097 ft | 415 kts | 236° |
| 2026-05-08 08:28 | 28.46951 | 125.89547 | 34096 ft | 410 kts | 236° |
| 2026-05-08 08:29 | 28.43374 | 125.84518 | 34106 ft | 413 kts | 236° |
| 2026-05-08 08:29 | 28.39739 | 125.79418 | 34080 ft | 417 kts | 236° |
| 2026-05-08 08:30 | 28.36073 | 125.74281 | 34112 ft | 419 kts | 236° |
| 2026-05-08 08:30 | 28.31200 | 125.67466 | 34116 ft | 417 kts | 236° |
| 2026-05-08 08:31 | 28.27549 | 125.62364 | 34104 ft | 414 kts | 236° |